Addison Township, Michigan
Current Conditions -  °F | °C
As of 1:33 AM on Monday 24 Nov 2014 (Local Time) from KD95 Reporting Station
Light Rain Light Rain  
Wind Chill: 45°   Ceiling: 800
Heat Index: 50°   Visibility: 10mi
Dew Point: 47°   Wind: 10mph
Humidity: 92%   Direction: 160°SSE
Pressure: 29.13"   Gusts: 20mph
Location:  42.8434°N, 83.1398°W
Report Text: KD95 240633Z AUTO 16009G17KT 10SM -RA OVC008 10/09 A2913 RMK AO2 P0005 T00980086
Loading
Personal Weather Stations






























Interactive Weather Map New forecast layout! Learn more

10-Day Weather Forecast

Advertisements
Track Severe Weather on mobile